Time;durP1;ratioP1;P1;durP2;ratioP2;P2;SDS_P1;SDS_P2;PMS_P1;PMS_P2;Temp;Humidity;BMP_temperature;BMP_pressure;BME280_temperature;BME280_humidity;BME280_pressure;Samples;Min_cycle;Max_cycle;Signal;HPM_P1;HPM_P2
2021/03/11 00:01:35;;;;;;;22.77;13.87;;;3.80;99.90;;;;;;5034430;28;20797;-59
2021/03/11 00:04:03;;;;;;;31.17;13.20;;;3.80;99.90;;;;;;5035248;28;20469;-59
2021/03/11 00:06:31;;;;;;;20.60;13.00;;;3.80;99.90;;;;;;5036531;28;20783;-59
2021/03/11 00:09:00;;;;;;;27.60;15.70;;;3.80;99.90;;;;;;5038076;28;20794;-59
2021/03/11 00:11:28;;;;;;;22.47;13.53;;;3.90;99.90;;;;;;5037355;28;20943;-59
2021/03/11 00:13:55;;;;;;;22.70;12.67;;;3.90;99.90;;;;;;5036500;28;20443;-59
2021/03/11 00:16:22;;;;;;;24.77;13.40;;;4.00;99.90;;;;;;5037326;28;20562;-61
2021/03/11 00:18:50;;;;;;;21.87;12.50;;;4.10;99.90;;;;;;5038801;28;20441;-59
2021/03/11 00:21:18;;;;;;;22.47;12.70;;;4.20;99.90;;;;;;5037848;28;20485;-58
2021/03/11 00:23:45;;;;;;;26.77;14.87;;;4.30;99.90;;;;;;5037760;28;20439;-59
2021/03/11 00:26:12;;;;;;;24.37;14.10;;;4.20;99.90;;;;;;5037534;28;20447;-59
2021/03/11 00:28:40;;;;;;;21.90;13.60;;;4.20;99.90;;;;;;5036888;28;20435;-59
2021/03/11 00:31:07;;;;;;;22.30;14.33;;;4.40;99.90;;;;;;5035140;28;20479;-60
2021/03/11 00:33:34;;;;;;;22.40;13.07;;;4.20;99.90;;;;;;5035839;28;20435;-59
2021/03/11 00:36:02;;;;;;;26.30;15.47;;;4.20;99.90;;;;;;5036548;28;20439;-59
2021/03/11 00:38:30;;;;;;;24.67;13.50;;;4.30;99.90;;;;;;5035700;28;20434;-59
2021/03/11 05:14:01;;;;;;;17.80;12.70;;;4.70;99.90;;;;;;5036575;28;20481;-59
2021/03/11 05:16:30;;;;;;;18.73;11.80;;;4.60;99.90;;;;;;5024545;28;20578;-59
2021/03/11 05:18:57;;;;;;;18.83;12.83;;;4.60;99.90;;;;;;5017008;28;20444;-59
2021/03/11 05:21:25;;;;;;;22.20;13.90;;;4.60;99.90;;;;;;5015725;28;20519;-59
2021/03/11 05:23:58;;;;;;;19.23;12.60;;;4.50;99.90;;;;;;5015782;28;20436;-59
2021/03/11 05:26:26;;;;;;;17.13;12.30;;;4.60;99.90;;;;;;5013770;28;20475;-60
2021/03/11 05:28:54;;;;;;;19.47;13.00;;;4.60;99.90;;;;;;5014819;28;20440;-59
2021/03/11 05:31:22;;;;;;;19.20;12.20;;;4.60;99.90;;;;;;5012249;28;20574;-62
2021/03/11 05:33:50;;;;;;;19.37;12.40;;;4.70;99.90;;;;;;5014658;28;20439;-61
2021/03/11 05:36:20;;;;;;;17.17;12.40;;;4.70;99.90;;;;;;5014019;28;20479;-59
2021/03/11 05:38:48;;;;;;;17.57;13.67;;;4.70;99.90;;;;;;5013890;28;20440;-62
2021/03/11 05:41:16;;;;;;;19.40;12.43;;;4.70;99.90;;;;;;5013847;28;20451;-60
2021/03/11 05:43:43;;;;;;;19.60;11.93;;;4.70;99.90;;;;;;5013402;28;20472;-60
2021/03/11 05:46:11;;;;;;;16.07;12.07;;;4.70;99.90;;;;;;5012516;28;20971;-59
2021/03/11 05:48:42;;;;;;;12.80;10.90;;;4.70;99.90;;;;;;5013507;28;20428;-59
2021/03/11 05:51:09;;;;;;;18.67;12.77;;;4.80;99.90;;;;;;5013534;28;20470;-60
2021/03/11 05:53:38;;;;;;;17.93;13.30;;;4.80;99.90;;;;;;5014056;28;20448;-61
2021/03/11 05:56:25;;;;;;;18.87;12.90;;;4.80;99.90;;;;;;5013788;28;20793;-60
2021/03/11 05:58:57;;;;;;;14.57;11.63;;;4.90;99.90;;;;;;5014005;28;20854;-60
2021/03/11 06:01:27;;;;;;;20.93;11.70;;;5.00;99.90;;;;;;5012749;28;20479;-60
2021/03/11 06:03:56;;;;;;;18.60;13.03;;;5.10;99.90;;;;;;5013207;28;20440;-61
2021/03/11 06:06:26;;;;;;;19.70;12.40;;;5.10;99.90;;;;;;5014490;28;20452;-59
2021/03/11 06:08:55;;;;;;;14.13;10.37;;;5.10;99.90;;;;;;5017171;28;20936;-60
2021/03/11 06:11:23;;;;;;;14.60;11.20;;;5.10;99.90;;;;;;5020176;28;20921;-59
2021/03/11 06:13:52;;;;;;;17.10;12.70;;;5.20;99.90;;;;;;5018924;28;20516;-60
2021/03/11 06:16:23;;;;;;;13.73;11.27;;;5.20;99.90;;;;;;5017171;28;20472;-60
2021/03/11 06:18:52;;;;;;;19.27;11.17;;;5.20;99.90;;;;;;5018112;28;20428;-60
2021/03/11 06:21:20;;;;;;;18.93;11.00;;;5.30;99.90;;;;;;5017838;28;20943;-63
2021/03/11 06:23:49;;;;;;;14.40;10.23;;;5.30;99.90;;;;;;5018661;28;20416;-59
2021/03/11 06:26:17;;;;;;;15.20;10.57;;;5.50;99.90;;;;;;5018784;28;20795;-60
2021/03/11 06:28:52;;;;;;;13.60;9.50;;;5.60;99.90;;;;;;5018825;28;20444;-59
2021/03/11 06:31:26;;;;;;;18.57;10.80;;;5.50;99.90;;;;;;5015932;28;20581;-62
2021/03/11 06:33:56;;;;;;;13.87;9.70;;;5.40;99.90;;;;;;5016008;28;20480;-59
2021/03/11 06:36:27;;;;;;;18.70;9.97;;;5.50;99.90;;;;;;5018639;28;20513;-60
2021/03/11 06:38:58;;;;;;;17.27;12.90;;;5.60;99.90;;;;;;5018290;28;20432;-60
2021/03/11 06:41:43;;;;;;;19.10;12.27;;;5.50;99.90;;;;;;5018834;28;20473;-60
2021/03/11 06:44:10;;;;;;;16.17;11.13;;;5.50;99.90;;;;;;5018042;28;20452;-59
2021/03/11 06:46:38;;;;;;;14.73;10.83;;;5.70;99.90;;;;;;5029654;28;20481;-60
2021/03/11 06:53:07;;;;;;;14.23;10.87;;;5.60;99.90;;;;;;5036140;28;20973;-60
2021/03/11 06:55:34;;;;;;;19.53;10.60;;;5.50;99.90;;;;;;5036373;28;20942;-60
2021/03/11 06:58:19;;;;;;;15.67;10.20;;;5.60;99.90;;;;;;5035949;28;20443;-59
2021/03/11 07:00:48;;;;;;;17.10;11.63;;;5.70;99.90;;;;;;5024885;28;20473;-59
2021/03/11 07:03:16;;;;;;;15.50;10.93;;;5.60;99.90;;;;;;4996832;28;20445;-60
2021/03/11 07:05:44;;;;;;;16.03;10.90;;;5.70;99.90;;;;;;4996481;28;20445;-59
2021/03/11 07:08:17;;;;;;;15.33;10.10;;;5.70;99.90;;;;;;4996356;28;20440;-62
2021/03/11 07:13:40;;;;;;;15.27;10.73;;;5.70;99.90;;;;;;4994992;28;20564;-59
2021/03/11 07:16:12;;;;;;;15.50;9.80;;;5.90;99.90;;;;;;5012400;28;20471;-59
2021/03/11 07:18:40;;;;;;;15.20;11.50;;;5.90;99.90;;;;;;5036703;28;20432;-61
2021/03/11 07:21:08;;;;;;;15.50;10.63;;;5.90;99.90;;;;;;5036145;28;20454;-60
2021/03/11 07:23:57;;;;;;;16.10;10.43;;;6.00;99.90;;;;;;5035350;28;20466;-59
2021/03/11 07:26:24;;;;;;;15.30;10.30;;;6.00;99.90;;;;;;5036455;28;20436;-60
2021/03/11 07:29:15;;;;;;;14.70;9.30;;;6.10;99.90;;;;;;5035301;28;20443;-60
2021/03/11 07:31:45;;;;;;;13.57;9.50;;;6.30;99.90;;;;;;5020778;28;20493;-60
2021/03/11 07:34:12;;;;;;;15.13;9.57;;;6.40;99.90;;;;;;5015859;28;20428;-60
2021/03/11 07:36:40;;;;;;;16.40;10.60;;;6.50;99.90;;;;;;5015884;28;20535;-60
2021/03/11 07:39:11;;;;;;;18.00;10.13;;;6.50;99.90;;;;;;5016274;28;20532;-59
2021/03/11 07:41:39;;;;;;;18.07;10.77;;;6.60;99.90;;;;;;5018999;28;20487;-59
2021/03/11 07:44:09;;;;;;;15.60;10.43;;;6.70;99.90;;;;;;5024226;28;20434;-60
2021/03/11 07:46:37;;;;;;;13.30;10.10;;;6.80;99.90;;;;;;5016582;28;20464;-59
2021/03/11 07:49:06;;;;;;;16.53;10.97;;;6.60;99.90;;;;;;5015802;28;20411;-60
2021/03/11 07:51:34;;;;;;;13.87;9.33;;;6.50;99.90;;;;;;5015424;28;20476;-62
2021/03/11 07:54:01;;;;;;;12.60;8.33;;;6.50;99.90;;;;;;5014913;28;20439;-62
2021/03/11 07:56:29;;;;;;;16.47;10.03;;;6.70;99.90;;;;;;5015243;28;20438;-59
2021/03/11 07:59:08;;;;;;;13.60;10.60;;;6.70;99.90;;;;;;5015809;28;20837;-59
2021/03/11 08:01:47;;;;;;;13.40;10.13;;;6.70;99.90;;;;;;5014347;28;21007;-59
2021/03/11 08:04:22;;;;;;;11.57;9.60;;;7.00;99.90;;;;;;5015543;28;20942;-59
2021/03/11 08:06:50;;;;;;;12.50;9.70;;;7.20;99.90;;;;;;5015903;28;20429;-59
2021/03/11 08:09:35;;;;;;;14.77;9.60;;;7.20;99.90;;;;;;5015657;28;20952;-59
2021/03/11 08:12:28;;;;;;;12.63;8.40;;;7.30;99.90;;;;;;5016006;28;20470;-59
2021/03/11 08:14:57;;;;;;;16.20;10.65;;;7.50;99.90;;;;;;5015189;28;20439;-60
2021/03/11 08:17:45;;;;;;;10.83;8.90;;;7.60;99.90;;;;;;5014866;28;20496;-59
2021/03/11 08:20:40;;;;;;;13.00;8.57;;;7.60;99.90;;;;;;5016067;28;20435;-60
2021/03/11 08:23:11;;;;;;;12.03;8.97;;;7.70;99.90;;;;;;5016057;28;20409;-59
2021/03/11 08:25:45;;;;;;;12.83;8.10;;;7.70;99.90;;;;;;5016173;28;20421;-59
2021/03/11 08:28:37;;;;;;;13.23;8.60;;;7.80;99.90;;;;;;5015658;28;20541;-59
2021/03/11 08:31:06;;;;;;;12.90;8.00;;;7.90;99.90;;;;;;5014301;28;20456;-59
2021/03/11 08:33:45;;;;;;;13.23;8.53;;;8.00;99.90;;;;;;5015475;28;20414;-59
2021/03/11 08:36:37;;;;;;;13.63;9.50;;;8.00;99.90;;;;;;5015048;28;20449;-60
2021/03/11 08:39:31;;;;;;;11.90;7.40;;;8.10;99.90;;;;;;5014002;28;20923;-62
2021/03/11 08:42:00;;;;;;;10.70;8.27;;;8.20;99.90;;;;;;5014953;28;20445;-59
2021/03/11 08:48:57;;;;;;;10.77;8.00;;;8.10;99.90;;;;;;5015355;28;20413;-59
2021/03/11 08:51:39;;;;;;;11.53;8.53;;;8.40;99.90;;;;;;5014547;28;20478;-59
2021/03/11 08:54:21;;;;;;;11.47;8.33;;;8.40;99.90;;;;;;5013909;28;20497;-60
2021/03/11 08:56:49;;;;;;;10.67;7.10;;;8.50;99.90;;;;;;5014439;28;20436;-59
2021/03/11 08:59:18;;;;;;;9.73;8.70;;;8.60;99.90;;;;;;5014635;28;20436;-63
2021/03/11 09:01:47;;;;;;;8.80;7.10;;;8.60;99.90;;;;;;5026978;28;20540;-59
2021/03/11 09:04:41;;;;;;;9.07;7.53;;;8.70;99.90;;;;;;5033521;28;20421;-59
2021/03/11 09:07:12;;;;;;;10.77;7.57;;;8.70;99.90;;;;;;5033320;28;20882;-63
2021/03/11 09:09:41;;;;;;;10.70;7.83;;;8.80;99.90;;;;;;5031989;28;20450;-60
2021/03/11 09:12:10;;;;;;;9.10;8.20;;;8.90;99.90;;;;;;5033374;28;20444;-59
2021/03/11 09:14:43;;;;;;;12.50;7.80;;;8.80;99.90;;;;;;5034326;28;20506;-59
2021/03/11 09:17:12;;;;;;;12.37;7.27;;;9.00;99.90;;;;;;5033526;28;20461;-59
2021/03/11 09:19:45;;;;;;;10.30;6.50;;;9.10;99.90;;;;;;5032473;28;20409;-61
2021/03/11 09:22:19;;;;;;;13.40;8.90;;;9.10;99.90;;;;;;5034439;28;20437;-59
2021/03/11 09:25:08;;;;;;;13.93;10.80;;;9.10;99.90;;;;;;5032837;28;20409;-60
2021/03/11 09:27:38;;;;;;;11.57;8.30;;;9.10;99.90;;;;;;5033638;28;20475;-59
2021/03/11 09:30:22;;;;;;;19.03;14.70;;;9.20;99.90;;;;;;5032601;28;20482;-61
2021/03/11 09:32:50;;;;;;;11.60;8.23;;;9.30;99.90;;;;;;5033181;28;20910;-59
2021/03/11 09:35:20;;;;;;;9.53;6.57;;;9.40;99.90;;;;;;5033361;28;20423;-61
2021/03/11 09:37:51;;;;;;;10.50;7.57;;;9.60;99.90;;;;;;5033314;28;20821;-59
2021/03/11 09:40:22;;;;;;;13.30;8.10;;;9.60;99.90;;;;;;5033407;28;20481;-63
2021/03/11 09:43:27;;;;;;;9.30;6.37;;;9.60;99.90;;;;;;5034571;28;20934;-60
2021/03/11 09:46:21;;;;;;;7.63;6.90;;;9.80;99.90;;;;;;5012338;28;20445;-61
2021/03/11 09:48:51;;;;;;;11.60;7.03;;;9.80;99.90;;;;;;5037162;28;20522;-58
2021/03/11 09:51:20;;;;;;;8.10;5.83;;;9.80;99.90;;;;;;5037064;28;20464;-60
2021/03/11 09:53:49;;;;;;;10.43;6.27;;;9.90;99.90;;;;;;5035873;28;20439;-59
2021/03/11 09:56:18;;;;;;;9.47;6.30;;;9.70;99.90;;;;;;5037566;28;20418;-59
2021/03/11 09:58:48;;;;;;;12.23;6.20;;;9.90;99.90;;;;;;5035586;28;20535;-60
2021/03/11 10:01:27;;;;;;;6.43;5.67;;;9.90;99.90;;;;;;5036016;28;20450;-60
2021/03/11 10:03:56;;;;;;;7.70;6.10;;;10.10;99.90;;;;;;5036726;28;20464;-60
2021/03/11 10:06:26;;;;;;;6.80;5.43;;;10.10;99.90;;;;;;5036941;28;20426;-59
2021/03/11 10:08:55;;;;;;;7.30;5.40;;;10.30;99.90;;;;;;5037116;28;20421;-63
2021/03/11 10:11:51;;;;;;;8.67;5.57;;;10.40;99.90;;;;;;5036844;28;20455;-59
2021/03/11 10:14:21;;;;;;;7.47;5.50;;;10.50;99.90;;;;;;5036618;28;20481;-63
2021/03/11 10:16:49;;;;;;;5.23;4.73;;;10.60;99.90;;;;;;5035730;28;20566;-60
2021/03/11 10:19:19;;;;;;;5.03;4.40;;;10.60;99.90;;;;;;5036712;28;20414;-59
2021/03/11 10:21:55;;;;;;;16.37;11.30;;;10.50;99.90;;;;;;5035474;23;21053;-74
2021/03/11 10:24:35;;;;;;;8.67;5.47;;;10.70;99.90;;;;;;5023385;28;20940;-75
2021/03/11 10:27:05;;;;;;;6.30;3.97;;;10.90;99.90;;;;;;5001039;28;20494;-75
2021/03/11 10:29:34;;;;;;;6.07;5.20;;;11.20;99.90;;;;;;5017139;28;20441;-75
2021/03/11 10:32:06;;;;;;;6.97;4.90;;;11.50;99.90;;;;;;5015604;28;20462;-78
2021/03/11 10:40:33;;;;;;;6.70;4.83;;;12.90;98.90;;;;;;5019134;28;20445;-74
2021/03/11 10:43:02;;;;;;;7.80;4.40;;;13.00;98.30;;;;;;5019293;28;20443;-75
2021/03/11 10:45:39;;;;;;;5.00;4.50;;;13.10;98.10;;;;;;5014402;28;20442;-74
2021/03/11 10:48:09;;;;;;;6.77;4.07;;;12.70;98.50;;;;;;5016854;28;20439;-75
2021/03/11 10:50:42;;;;;;;5.23;4.53;;;12.00;99.40;;;;;;5015605;28;20442;-75
2021/03/11 10:53:11;;;;;;;6.20;4.87;;;12.20;99.60;;;;;;5016737;28;20470;-74
2021/03/11 10:55:40;;;;;;;6.93;4.67;;;12.50;99.40;;;;;;5014945;28;20451;-74
2021/03/11 10:58:20;;;;;;;6.30;3.80;;;12.20;99.60;;;;;;5016592;28;20438;-74
2021/03/11 11:01:06;;;;;;;6.80;4.20;;;12.00;99.90;;;;;;4998179;28;20489;-75
2021/03/11 11:03:35;;;;;;;5.70;4.60;;;11.90;99.90;;;;;;5017232;28;20823;-75
2021/03/11 11:06:05;;;;;;;6.03;4.17;;;11.80;99.90;;;;;;5017665;28;20498;-75
2021/03/11 11:08:34;;;;;;;11.90;6.00;;;11.70;99.90;;;;;;5002274;28;20481;-75
2021/03/11 11:11:02;;;;;;;4.73;4.17;;;11.70;99.90;;;;;;5001059;28;20451;-78
2021/03/11 11:13:31;;;;;;;5.17;3.63;;;11.60;99.90;;;;;;4999647;28;20573;-75
2021/03/11 11:16:24;;;;;;;5.10;3.83;;;11.60;99.90;;;;;;5017393;28;20491;-75
2021/03/11 11:18:53;;;;;;;11.90;4.50;;;11.60;99.90;;;;;;5020754;28;20789;-75
2021/03/11 11:21:47;;;;;;;4.63;4.23;;;11.60;99.90;;;;;;5000238;28;20560;-75
2021/03/11 11:24:16;;;;;;;5.20;3.97;;;11.70;99.90;;;;;;5016749;28;20438;-77
2021/03/11 11:26:43;;;;;;;8.23;4.53;;;11.70;99.90;;;;;;5015528;28;20492;-79
2021/03/11 11:29:12;;;;;;;7.03;4.67;;;11.90;99.90;;;;;;5016545;28;20437;-76
2021/03/11 11:31:42;;;;;;;7.03;3.93;;;11.80;99.90;;;;;;5003784;28;20475;-76
2021/03/11 11:34:13;;;;;;;7.07;3.93;;;11.90;99.90;;;;;;4997662;28;20427;-75
2021/03/11 11:36:42;;;;;;;7.13;4.07;;;12.00;99.90;;;;;;4998804;28;20440;-76
2021/03/11 11:39:11;;;;;;;3.70;3.40;;;12.00;99.90;;;;;;5008349;28;20452;-76
2021/03/11 11:41:41;;;;;;;8.33;3.37;;;12.30;99.90;;;;;;5007600;28;20509;-77
2021/03/11 11:44:10;;;;;;;3.67;3.30;;;12.30;99.90;;;;;;5005648;28;20432;-76
2021/03/11 11:46:40;;;;;;;3.60;2.70;;;12.40;99.90;;;;;;5003594;28;20476;-75
2021/03/11 11:49:09;;;;;;;2.93;1.93;;;12.50;99.90;;;;;;5001537;28;20459;-75
2021/03/11 11:51:37;;;;;;;2.60;1.70;;;12.60;99.90;;;;;;5000243;28;20520;-75
2021/03/11 11:54:06;;;;;;;3.20;2.13;;;12.60;99.90;;;;;;4982119;28;20440;-75
2021/03/11 11:56:34;;;;;;;2.63;1.83;;;12.50;99.90;;;;;;4979384;28;20438;-75
2021/03/11 11:59:03;;;;;;;2.10;1.70;;;12.50;99.90;;;;;;4995450;28;20431;-75
2021/03/11 12:01:31;;;;;;;2.97;1.63;;;12.60;99.90;;;;;;4994722;28;20515;-75
2021/03/11 12:04:00;;;;;;;2.27;1.70;;;12.60;99.90;;;;;;4962691;28;20446;-75
2021/03/11 12:06:28;;;;;;;2.63;1.60;;;12.60;99.90;;;;;;4995231;28;20438;-75
2021/03/11 12:08:56;;;;;;;1.97;1.53;;;12.60;99.90;;;;;;4994755;28;20805;-75
2021/03/11 12:11:25;;;;;;;2.73;1.50;;;12.70;99.90;;;;;;4996520;28;20439;-79
2021/03/11 12:14:19;;;;;;;1.87;1.67;;;12.70;99.90;;;;;;4995235;28;20888;-76
2021/03/11 12:16:47;;;;;;;1.97;1.40;;;12.70;99.90;;;;;;4994649;28;20488;-77
2021/03/11 12:19:16;;;;;;;4.27;1.60;;;12.70;99.90;;;;;;4996998;28;20422;-76
2021/03/11 12:21:45;;;;;;;1.97;1.50;;;12.70;99.90;;;;;;4995825;28;20472;-76
2021/03/11 12:24:14;;;;;;;6.87;1.90;;;12.70;99.90;;;;;;4996993;28;20916;-76
2021/03/11 12:26:42;;;;;;;2.60;1.60;;;12.60;99.90;;;;;;4998826;28;20482;-76
2021/03/11 12:29:11;;;;;;;2.33;1.80;;;12.30;99.90;;;;;;4998669;28;20435;-77
2021/03/11 12:31:40;;;;;;;3.63;1.50;;;12.40;99.90;;;;;;4983167;28;20474;-76
2021/03/11 12:34:09;;;;;;;1.80;1.53;;;12.50;99.90;;;;;;4997410;28;20471;-75
2021/03/11 12:36:37;;;;;;;3.03;2.10;;;12.50;99.90;;;;;;4997700;28;20436;-75
2021/03/11 12:39:08;;;;;;;3.83;2.73;;;12.50;99.90;;;;;;4980403;28;20434;-76
2021/03/11 12:41:38;;;;;;;4.07;3.13;;;12.50;99.90;;;;;;4964845;28;20888;-79
2021/03/11 12:44:06;;;;;;;3.50;3.20;;;12.30;99.90;;;;;;4996216;28;20442;-76
2021/03/11 12:46:36;;;;;;;3.97;3.27;;;12.30;99.90;;;;;;4981248;28;20476;-77
2021/03/11 12:49:13;;;;;;;3.83;3.10;;;12.40;99.90;;;;;;5004691;28;20420;-78
2021/03/11 12:51:42;;;;;;;3.13;2.40;;;12.50;99.90;;;;;;4998361;28;20487;-79
2021/03/11 12:54:10;;;;;;;2.27;1.50;;;12.60;99.90;;;;;;5015687;28;20499;-78
2021/03/11 12:56:38;;;;;;;4.43;1.60;;;12.70;99.90;;;;;;4998868;28;20409;-77
2021/03/11 12:59:06;;;;;;;2.50;1.63;;;12.50;99.90;;;;;;5015044;28;20432;-77
2021/03/11 13:01:34;;;;;;;1.03;0.93;;;12.60;99.90;;;;;;4997950;28;20467;-77
2021/03/11 13:04:03;;;;;;;3.30;1.40;;;12.80;99.90;;;;;;5015297;28;20432;-78
2021/03/11 13:06:32;;;;;;;2.17;1.20;;;12.90;99.90;;;;;;4999329;28;20423;-76
2021/03/11 13:09:00;;;;;;;2.00;1.47;;;12.80;99.90;;;;;;5014881;28;20445;-77
2021/03/11 13:11:27;;;;;;;1.40;1.30;;;12.80;99.90;;;;;;5002882;28;20461;-79
2021/03/11 13:14:20;;;;;;;1.33;1.10;;;13.10;99.90;;;;;;4998896;28;20475;-81
2021/03/11 13:22:37;;;;;;;2.50;1.37;;;13.50;99.90;;;;;;5003769;28;20198;-78
2021/03/11 13:25:08;;;;;;;2.37;1.37;;;13.50;99.90;;;;;;5001867;28;20445;-80
2021/03/11 13:27:37;;;;;;;1.20;1.10;;;13.70;99.90;;;;;;5004568;28;20439;-78
2021/03/11 13:30:06;;;;;;;2.07;1.27;;;13.70;99.90;;;;;;5005420;28;20468;-78
2021/03/11 13:32:34;;;;;;;3.03;1.30;;;13.70;99.90;;;;;;4983371;28;20491;-77
2021/03/11 13:35:03;;;;;;;1.30;1.03;;;13.70;99.90;;;;;;5001834;28;20448;-79
2021/03/11 13:40:26;;;;;;;1.33;1.20;;;13.20;99.90;;;;;;4985465;28;20448;-79
2021/03/11 13:43:00;;;;;;;1.13;0.90;;;13.10;99.90;;;;;;4986114;28;20958;-78
2021/03/11 13:45:31;;;;;;;1.70;1.37;;;13.00;99.90;;;;;;4982633;28;20482;-79
2021/03/11 13:47:59;;;;;;;1.70;1.03;;;13.10;99.90;;;;;;4999968;28;20937;-78
2021/03/11 13:50:27;;;;;;;1.60;1.07;;;13.10;99.90;;;;;;4968032;28;20472;-79
2021/03/11 13:52:55;;;;;;;1.50;1.40;;;13.20;99.90;;;;;;4999108;28;20486;-79
2021/03/11 13:55:25;;;;;;;2.30;1.73;;;13.20;99.90;;;;;;4984166;28;20433;-81
2021/03/11 13:57:54;;;;;;;1.97;1.30;;;13.20;99.90;;;;;;4985570;28;20471;-77
2021/03/11 14:00:22;;;;;;;1.40;1.20;;;13.30;99.90;;;;;;4982797;28;20447;-77
2021/03/11 14:02:52;;;;;;;0.80;0.77;;;13.30;99.90;;;;;;4998908;28;20442;-79
2021/03/11 14:05:20;;;;;;;1.50;0.97;;;13.10;99.90;;;;;;4982623;28;20479;-77
2021/03/11 14:07:47;;;;;;;3.13;1.47;;;13.20;99.90;;;;;;5000168;28;20429;-77
2021/03/11 14:10:16;;;;;;;1.37;1.00;;;12.90;99.90;;;;;;4999224;28;20441;-79
2021/03/11 14:12:45;;;;;;;1.70;1.20;;;13.10;99.90;;;;;;5000373;28;20494;-77
2021/03/11 14:15:15;;;;;;;1.90;1.50;;;13.10;99.90;;;;;;5005960;28;20486;-78
2021/03/11 14:17:45;;;;;;;2.77;1.30;;;13.00;99.90;;;;;;4989473;28;20460;-77
2021/03/11 14:20:14;;;;;;;1.00;0.77;;;13.00;99.90;;;;;;5008176;28;20451;-79
2021/03/11 14:22:42;;;;;;;1.53;1.10;;;13.00;99.90;;;;;;5023886;28;20444;-78
2021/03/11 14:25:12;;;;;;;0.70;0.67;;;12.80;99.90;;;;;;5027521;28;20544;-80
2021/03/11 14:27:40;;;;;;;1.67;1.03;;;13.00;99.90;;;;;;5023000;28;20520;-79
2021/03/11 14:30:11;;;;;;;1.70;1.10;;;13.00;99.90;;;;;;5019791;28;20439;-78
2021/03/11 14:32:40;;;;;;;0.90;0.80;;;13.00;99.90;;;;;;5034140;28;20487;-77
2021/03/11 14:35:08;;;;;;;1.67;1.00;;;13.10;99.90;;;;;;5000602;28;20454;-77
2021/03/11 14:37:37;;;;;;;1.43;1.30;;;13.10;99.90;;;;;;5001365;28;20444;-78
2021/03/11 14:40:07;;;;;;;1.03;0.77;;;13.20;99.90;;;;;;5000681;28;20433;-77
2021/03/11 14:42:35;;;;;;;1.20;0.97;;;13.20;99.90;;;;;;5016132;28;20915;-77
2021/03/11 14:45:03;;;;;;;1.93;0.87;;;13.10;99.90;;;;;;5017088;28;20479;-78
2021/03/11 14:47:32;;;;;;;1.50;1.00;;;13.10;99.90;;;;;;4984081;28;20474;-77
2021/03/11 14:49:59;;;;;;;0.97;0.80;;;13.10;99.90;;;;;;4999934;28;20543;-77
2021/03/11 14:52:27;;;;;;;0.97;0.70;;;13.10;99.90;;;;;;5019762;28;20463;-77
2021/03/11 14:55:21;;;;;;;0.70;0.70;;;13.20;99.90;;;;;;4999247;28;20550;-78
2021/03/11 14:57:49;;;;;;;1.37;0.60;;;13.20;99.90;;;;;;5017322;28;20429;-80
2021/03/11 15:00:17;;;;;;;1.60;0.93;;;13.30;99.90;;;;;;5000604;28;20434;-76
2021/03/11 15:02:46;;;;;;;0.90;0.70;;;13.30;99.90;;;;;;5052216;28;20480;-78
2021/03/11 15:05:16;;;;;;;1.00;0.63;;;13.30;99.90;;;;;;5036788;28;20964;-79
2021/03/11 15:07:44;;;;;;;0.80;0.63;;;13.30;99.90;;;;;;5020499;28;20442;-75
2021/03/11 15:10:14;;;;;;;1.67;1.00;;;13.20;99.90;;;;;;5053523;28;20453;-78
2021/03/11 15:12:42;;;;;;;1.53;0.70;;;13.20;99.90;;;;;;5018782;28;21008;-75
2021/03/11 15:15:11;;;;;;;0.97;0.60;;;13.20;99.90;;;;;;5020736;28;20438;-77
2021/03/11 15:17:39;;;;;;;1.10;0.97;;;13.20;99.90;;;;;;5038653;28;20473;-76
2021/03/11 15:20:10;;;;;;;0.80;0.70;;;13.10;99.90;;;;;;5041421;28;20520;-78
2021/03/11 15:22:38;;;;;;;1.00;0.80;;;13.00;99.90;;;;;;5026056;28;20801;-80
2021/03/11 15:25:09;;;;;;;0.70;0.63;;;13.00;99.90;;;;;;5006352;28;20482;-78
2021/03/11 15:27:36;;;;;;;2.03;0.90;;;13.00;99.90;;;;;;5021711;28;20525;-78
2021/03/11 15:30:06;;;;;;;1.03;0.87;;;13.00;99.90;;;;;;5037618;28;20493;-76
2021/03/11 15:32:36;;;;;;;0.87;0.80;;;13.00;99.90;;;;;;5033922;28;22374;-75
2021/03/11 15:35:20;;;;;;;5.10;1.17;;;12.90;99.90;;;;;;5019124;28;20746;-80
2021/03/11 15:38:17;;;;;;;3.37;0.90;;;12.80;99.90;;;;;;5031942;23;20502;-65
2021/03/11 15:40:45;;;;;;;1.63;0.87;;;12.50;99.90;;;;;;5014341;28;20840;-64
2021/03/11 15:43:13;;;;;;;1.10;0.80;;;12.40;99.90;;;;;;5014496;28;20439;-64
2021/03/11 15:45:40;;;;;;;1.17;1.07;;;12.30;99.90;;;;;;5015950;28;20532;-64
2021/03/11 15:48:08;;;;;;;1.60;1.20;;;12.20;99.90;;;;;;5034534;28;20454;-64
2021/03/11 15:51:02;;;;;;;1.73;1.30;;;12.10;99.90;;;;;;5034656;28;20534;-64
2021/03/11 15:53:30;;;;;;;2.07;1.20;;;12.10;99.90;;;;;;5035590;28;20473;-61
2021/03/11 15:55:59;;;;;;;3.37;1.40;;;12.00;99.90;;;;;;5034843;28;20437;-62
2021/03/11 15:58:26;;;;;;;1.30;1.20;;;11.90;99.90;;;;;;5035319;28;20477;-63
2021/03/11 16:00:55;;;;;;;1.43;0.80;;;11.80;99.90;;;;;;5033677;28;20476;-64
2021/03/11 16:03:24;;;;;;;2.53;1.50;;;11.60;99.90;;;;;;5017980;28;20445;-64
2021/03/11 16:05:52;;;;;;;1.57;1.07;;;11.40;99.90;;;;;;5035151;28;20911;-65
2021/03/11 16:08:21;;;;;;;2.03;1.10;;;11.30;99.90;;;;;;5035476;28;20436;-65
2021/03/11 16:10:49;;;;;;;1.37;1.10;;;11.20;99.90;;;;;;5035818;28;20443;-64
2021/03/11 16:13:16;;;;;;;2.57;1.70;;;11.20;99.90;;;;;;5033834;28;20526;-66
2021/03/11 16:15:44;;;;;;;1.20;1.10;;;11.20;99.90;;;;;;5034647;28;20821;-63
2021/03/11 16:18:13;;;;;;;1.73;0.90;;;11.20;99.90;;;;;;5036001;28;20531;-63
2021/03/11 16:20:42;;;;;;;3.00;0.93;;;11.10;99.90;;;;;;5035060;28;20522;-68
2021/03/11 16:23:11;;;;;;;0.97;0.80;;;11.00;99.90;;;;;;5034220;28;20530;-65
2021/03/11 16:25:39;;;;;;;1.43;1.07;;;10.90;99.90;;;;;;5035630;28;20451;-67
2021/03/11 16:28:07;;;;;;;1.70;1.50;;;10.80;99.90;;;;;;5034382;28;20492;-64
2021/03/11 16:30:36;;;;;;;1.50;1.20;;;10.70;99.90;;;;;;5034250;28;20506;-65
2021/03/11 16:33:05;;;;;;;1.73;1.00;;;10.60;99.90;;;;;;5035617;28;20513;-64
2021/03/11 16:35:51;;;;;;;1.30;1.20;;;10.50;99.90;;;;;;5034105;28;20447;-64
2021/03/11 16:38:19;;;;;;;1.80;1.20;;;10.50;99.90;;;;;;5050530;28;20502;-63
2021/03/11 16:40:49;;;;;;;1.10;0.80;;;10.40;99.90;;;;;;5036637;28;20462;-63
2021/03/11 16:43:16;;;;;;;2.40;1.00;;;10.40;99.90;;;;;;5055013;28;20405;-63
2021/03/11 16:45:44;;;;;;;0.73;0.63;;;10.30;99.90;;;;;;5053461;28;20477;-64
2021/03/11 16:48:12;;;;;;;1.23;1.13;;;10.30;99.90;;;;;;5054832;28;20442;-63
2021/03/11 16:50:44;;;;;;;1.23;1.10;;;10.30;99.90;;;;;;5037242;28;20437;-64
2021/03/11 16:53:12;;;;;;;1.90;0.80;;;10.30;99.90;;;;;;5053201;28;20558;-63
2021/03/11 16:55:40;;;;;;;1.90;1.13;;;10.30;99.90;;;;;;5054630;28;20413;-63
2021/03/11 16:58:09;;;;;;;2.90;0.83;;;10.50;99.90;;;;;;5054859;28;20456;-66
2021/03/11 17:00:36;;;;;;;0.77;0.63;;;10.50;99.90;;;;;;5054353;28;20791;-63
2021/03/11 17:03:04;;;;;;;1.37;0.83;;;10.40;99.90;;;;;;5037665;28;20803;-63
2021/03/11 17:05:33;;;;;;;0.93;0.83;;;10.50;99.90;;;;;;5054793;28;20442;-65
2021/03/11 17:08:01;;;;;;;0.80;0.57;;;10.60;99.90;;;;;;5054446;28;20444;-63
2021/03/11 17:10:30;;;;;;;1.90;1.10;;;10.50;99.90;;;;;;5054692;28;20938;-63
2021/03/11 17:12:58;;;;;;;1.30;1.00;;;10.50;99.90;;;;;;5054417;28;20493;-63
2021/03/11 17:15:27;;;;;;;1.30;1.00;;;10.50;99.90;;;;;;5053228;28;20493;-63
2021/03/11 17:17:54;;;;;;;1.10;0.73;;;10.50;99.90;;;;;;5054343;28;20597;-64
2021/03/11 17:20:23;;;;;;;1.03;0.90;;;10.40;99.90;;;;;;5054177;28;21008;-64
2021/03/11 17:22:51;;;;;;;1.60;1.20;;;10.30;99.90;;;;;;5054667;28;20435;-63
2021/03/11 17:25:19;;;;;;;3.43;1.27;;;10.30;99.90;;;;;;5054866;28;20440;-63
2021/03/11 17:27:46;;;;;;;1.90;1.00;;;10.20;99.90;;;;;;5078577;22;20494;-59
2021/03/11 17:30:15;;;;;;;3.53;1.37;;;10.20;99.90;;;;;;5071296;28;20435;-60
2021/03/11 17:32:43;;;;;;;1.10;1.00;;;10.20;99.90;;;;;;5071479;28;20462;-59
2021/03/11 17:35:15;;;;;;;3.80;2.50;;;10.20;99.90;;;;;;5070530;28;20409;-61
2021/03/11 17:37:43;;;;;;;1.87;1.60;;;10.20;99.90;;;;;;5074600;28;20457;-60
2021/03/11 17:40:12;;;;;;;1.37;1.23;;;10.30;99.90;;;;;;5075007;28;20458;-61
2021/03/11 17:42:40;;;;;;;1.47;1.30;;;10.20;99.90;;;;;;5073758;28;20458;-60
2021/03/11 17:45:09;;;;;;;1.00;0.90;;;10.30;99.90;;;;;;5074197;28;20449;-61
2021/03/11 17:47:37;;;;;;;2.30;1.67;;;10.30;99.90;;;;;;5054289;28;20513;-61
2021/03/11 17:50:08;;;;;;;3.13;1.03;;;10.30;99.90;;;;;;5054190;28;20570;-60
2021/03/11 17:52:35;;;;;;;1.93;1.27;;;10.30;99.90;;;;;;5071911;28;20431;-60
2021/03/11 17:55:06;;;;;;;1.57;1.30;;;10.30;99.90;;;;;;5073124;28;20490;-63
2021/03/11 17:57:34;;;;;;;1.93;1.47;;;10.10;99.90;;;;;;5073944;28;20434;-62
2021/03/11 18:00:27;;;;;;;1.53;1.30;;;10.10;99.90;;;;;;5074359;28;20433;-59
2021/03/11 18:02:55;;;;;;;2.90;1.93;;;10.10;99.90;;;;;;5073481;28;20481;-61
2021/03/11 18:05:45;;;;;;;2.00;1.80;;;10.00;99.90;;;;;;5077564;28;20482;-60